createdAt,value
2019-02-22T00:02:27.802Z,6.30
2019-02-22T00:04:57.227Z,5.53
2019-02-22T00:07:26.635Z,5.23
2019-02-22T00:09:56.150Z,5.53
2019-02-22T00:12:25.558Z,7.40
2019-02-22T00:14:54.993Z,9.13
2019-02-22T00:17:24.434Z,8.13
2019-02-22T00:19:53.908Z,8.00
2019-02-22T00:22:23.314Z,5.93
2019-02-22T00:24:52.585Z,5.93
2019-02-22T00:27:21.842Z,5.27
2019-02-22T00:29:51.133Z,4.47
2019-02-22T00:32:20.453Z,5.53
2019-02-22T00:34:49.665Z,4.07
2019-02-22T00:37:19.008Z,5.43
2019-02-22T00:39:48.233Z,4.00
2019-02-22T00:42:17.569Z,4.00
2019-02-22T00:44:46.953Z,3.93
2019-02-22T00:47:16.289Z,3.73
2019-02-22T00:49:45.933Z,3.90
2019-02-22T00:52:15.297Z,3.53
2019-02-22T00:54:44.569Z,3.80
2019-02-22T00:57:13.993Z,3.83
2019-02-22T00:59:43.225Z,3.93
2019-02-22T01:02:12.545Z,3.80
2019-02-22T01:04:41.837Z,3.77
2019-02-22T01:07:11.241Z,4.10
2019-02-22T01:09:40.553Z,3.80
2019-02-22T01:12:09.945Z,3.40
2019-02-22T01:14:39.213Z,3.37
2019-02-22T01:17:08.609Z,4.20
2019-02-22T01:19:37.984Z,4.00
2019-02-22T01:22:07.341Z,4.07
2019-02-22T01:24:36.621Z,3.93
2019-02-22T01:27:05.905Z,4.37
2019-02-22T01:29:35.185Z,4.03
2019-02-22T01:32:04.576Z,4.07
2019-02-22T01:34:33.989Z,4.20
2019-02-22T01:37:03.324Z,4.03
2019-02-22T01:39:32.617Z,3.97
2019-02-22T01:42:01.926Z,3.90
2019-02-22T01:44:31.252Z,3.90
2019-02-22T01:47:00.500Z,3.53
2019-02-22T01:49:29.796Z,3.17
2019-02-22T01:51:59.046Z,3.00
2019-02-22T01:54:28.332Z,3.10
2019-02-22T01:56:57.591Z,3.20
2019-02-22T01:59:26.949Z,3.00
2019-02-22T02:01:56.220Z,2.80
2019-02-22T02:04:25.590Z,2.93
2019-02-22T02:06:54.948Z,3.03
2019-02-22T02:09:24.202Z,2.87
2019-02-22T02:11:53.576Z,3.13
2019-02-22T02:14:22.828Z,3.37
2019-02-22T02:16:52.116Z,3.23
2019-02-22T02:19:21.413Z,2.80
2019-02-22T02:21:50.648Z,3.60
2019-02-22T02:24:19.968Z,3.50
2019-02-22T02:26:49.296Z,3.23
2019-02-22T02:29:18.572Z,2.93
2019-02-22T02:31:47.936Z,3.50
2019-02-22T02:34:17.303Z,3.83
2019-02-22T02:36:46.669Z,2.73
2019-02-22T02:39:15.983Z,3.17
2019-02-22T02:41:45.351Z,3.07
2019-02-22T02:44:14.587Z,3.50
2019-02-22T02:46:43.884Z,2.90
2019-02-22T02:49:13.115Z,3.07
2019-02-22T02:51:42.427Z,3.00
2019-02-22T02:54:11.679Z,3.53
2019-02-22T02:56:41.803Z,3.63
2019-02-22T02:59:11.146Z,3.00
2019-02-22T03:01:40.515Z,2.97
2019-02-22T03:04:09.891Z,2.93
2019-02-22T03:06:44.951Z,3.00
2019-02-22T03:09:14.235Z,3.70
2019-02-22T03:11:43.574Z,3.63
2019-02-22T03:14:13.248Z,3.77
2019-02-22T03:16:42.575Z,3.30
2019-02-22T03:19:11.834Z,3.20
2019-02-22T03:21:41.204Z,3.00
2019-02-22T03:24:10.459Z,3.37
2019-02-22T03:26:39.786Z,3.23
2019-02-22T03:29:09.066Z,3.07
2019-02-22T03:31:38.337Z,3.27
2019-02-22T03:34:07.700Z,2.97
2019-02-22T03:36:37.110Z,3.17
2019-02-22T03:39:07.214Z,3.33
2019-02-22T03:41:36.518Z,2.90
2019-02-22T03:44:05.868Z,2.97
2019-02-22T03:46:35.167Z,2.90
2019-02-22T03:49:04.544Z,2.97
2019-02-22T03:51:33.890Z,3.13
2019-02-22T03:54:04.270Z,3.13
2019-02-22T03:56:33.638Z,3.00
2019-02-22T03:59:03.006Z,3.10
2019-02-22T04:01:32.334Z,3.40
2019-02-22T04:04:01.621Z,3.37
2019-02-22T04:06:30.880Z,3.07
2019-02-22T04:09:00.338Z,3.13
2019-02-22T04:11:29.958Z,2.67
2019-02-22T04:13:59.242Z,3.10
2019-02-22T04:16:28.551Z,2.77
2019-02-22T04:18:57.955Z,2.63
2019-02-22T04:21:27.230Z,3.20
2019-02-22T04:23:56.570Z,2.77
2019-02-22T04:26:25.836Z,2.87
2019-02-22T04:28:55.369Z,2.97
2019-02-22T04:31:24.784Z,2.63
2019-02-22T04:33:54.090Z,2.77
2019-02-22T04:36:23.355Z,3.23
2019-02-22T04:38:52.629Z,3.33
2019-02-22T04:41:21.944Z,2.50
2019-02-22T04:43:51.333Z,3.10
2019-02-22T04:46:20.606Z,3.20
2019-02-22T04:48:49.979Z,2.67
2019-02-22T04:51:19.269Z,3.10
2019-02-22T04:53:48.509Z,3.67
2019-02-22T04:56:17.817Z,2.93
2019-02-22T04:58:47.109Z,3.07
2019-02-22T05:01:16.391Z,2.53
2019-02-22T05:03:45.722Z,3.13
2019-02-22T05:06:14.989Z,2.83
2019-02-22T05:08:44.360Z,2.90
2019-02-22T05:11:13.890Z,3.30
2019-02-22T05:13:43.354Z,2.83
2019-02-22T05:16:12.924Z,2.93
2019-02-22T05:18:42.202Z,2.90
2019-02-22T05:21:11.718Z,2.70
2019-02-22T05:23:41.074Z,2.83
2019-02-22T05:26:10.520Z,3.20
2019-02-22T05:28:39.794Z,2.60
2019-02-22T05:31:09.166Z,2.97
2019-02-22T05:33:38.430Z,2.60
2019-02-22T05:36:07.737Z,3.20
2019-02-22T05:38:37.026Z,3.40
2019-02-22T05:41:06.366Z,3.30
2019-02-22T05:43:35.682Z,3.47
2019-02-22T05:46:05.540Z,3.63
2019-02-22T05:48:34.813Z,3.40
2019-02-22T05:51:04.116Z,3.23
2019-02-22T05:53:33.408Z,3.13
2019-02-22T05:56:02.684Z,3.60
2019-02-22T05:58:31.924Z,3.20
2019-02-22T06:01:06.618Z,3.47
2019-02-22T06:03:34.676Z,3.33
2019-02-22T06:06:03.980Z,4.17
2019-02-22T06:08:33.270Z,4.10
2019-02-22T06:11:02.646Z,3.90
2019-02-22T06:13:31.881Z,4.03
2019-02-22T06:16:01.197Z,4.20
2019-02-22T06:18:30.424Z,3.60
2019-02-22T06:20:59.821Z,3.37
2019-02-22T06:23:29.080Z,3.40
2019-02-22T06:25:58.368Z,3.10
2019-02-22T06:28:27.692Z,4.17
2019-02-22T06:30:57.082Z,4.27
2019-02-22T06:33:26.327Z,3.37
2019-02-22T06:35:55.591Z,3.30
2019-02-22T06:38:24.920Z,3.30
2019-02-22T06:40:54.284Z,4.50
2019-02-22T06:43:24.639Z,5.27
2019-02-22T06:45:54.017Z,3.80
2019-02-22T06:48:23.371Z,3.27
2019-02-22T06:50:52.659Z,3.30
2019-02-22T06:53:21.951Z,3.77
2019-02-22T06:55:51.204Z,3.77
2019-02-22T06:58:20.609Z,3.97
2019-02-22T07:00:49.879Z,4.10
2019-02-22T07:03:19.316Z,3.57
2019-02-22T07:05:48.651Z,4.07
2019-02-22T07:08:17.972Z,3.40
2019-02-22T07:11:18.283Z,3.50
2019-02-22T07:13:47.667Z,3.70
2019-02-22T07:16:17.018Z,3.33
2019-02-22T07:18:46.295Z,4.63
2019-02-22T07:21:16.411Z,3.67
2019-02-22T07:23:45.921Z,3.13
2019-02-22T07:26:15.154Z,3.47
2019-02-22T07:28:44.496Z,3.40
2019-02-22T07:31:13.737Z,2.97
2019-02-22T07:33:42.971Z,3.17
2019-02-22T07:36:12.271Z,3.53
2019-02-22T07:38:41.587Z,3.70
2019-02-22T07:41:10.983Z,3.13
2019-02-22T07:43:40.279Z,2.90
2019-02-22T07:46:09.586Z,3.40
2019-02-22T07:48:39.111Z,3.20
2019-02-22T07:51:08.358Z,3.03
2019-02-22T07:53:37.656Z,3.03
2019-02-22T07:56:06.975Z,3.37
2019-02-22T07:58:36.246Z,3.07
2019-02-22T08:01:05.423Z,3.53
2019-02-22T08:03:37.314Z,2.87
2019-02-22T08:06:05.594Z,2.90
2019-02-22T08:08:35.754Z,2.80
2019-02-22T08:11:05.050Z,3.00
2019-02-22T08:13:34.299Z,2.63
2019-02-22T08:16:03.656Z,3.50
2019-02-22T08:18:32.981Z,2.90
2019-02-22T08:21:04.154Z,2.90
2019-02-22T08:23:33.439Z,3.07
2019-02-22T08:26:02.706Z,3.20
2019-02-22T08:28:32.018Z,3.40
2019-02-22T08:31:01.740Z,3.20
2019-02-22T08:33:31.122Z,3.33
2019-02-22T08:36:00.401Z,3.30
2019-02-22T08:38:29.697Z,4.00
2019-02-22T08:40:58.977Z,3.73
2019-02-22T08:43:31.517Z,3.10
2019-02-22T08:45:59.265Z,3.33
2019-02-22T08:48:28.581Z,3.60
2019-02-22T08:50:57.845Z,3.20
2019-02-22T08:53:27.253Z,3.10
2019-02-22T08:55:56.600Z,3.27
2019-02-22T08:58:26.005Z,4.03
2019-02-22T09:00:55.360Z,4.20
2019-02-22T09:03:24.617Z,3.17
2019-02-22T09:05:53.925Z,3.30
2019-02-22T09:08:23.261Z,2.90
2019-02-22T09:11:00.368Z,3.27
2019-02-22T09:13:23.460Z,3.53
2019-02-22T09:15:52.744Z,2.60
2019-02-22T09:18:22.013Z,3.30
2019-02-22T09:20:51.392Z,3.30
2019-02-22T09:23:20.661Z,2.87
2019-02-22T09:25:49.946Z,2.97
2019-02-22T09:28:19.184Z,2.60
2019-02-22T09:30:48.549Z,2.40
2019-02-22T09:33:17.798Z,3.00
2019-02-22T09:35:47.157Z,2.80
2019-02-22T09:38:16.412Z,2.63
2019-02-22T09:40:45.694Z,2.53
2019-02-22T09:43:14.980Z,2.27
2019-02-22T09:45:44.353Z,2.77
2019-02-22T09:48:13.627Z,2.50
2019-02-22T09:50:43.056Z,2.30
2019-02-22T09:53:12.321Z,2.40
2019-02-22T09:55:41.612Z,2.63
2019-02-22T09:58:10.904Z,2.50
2019-02-22T10:00:40.153Z,2.27
2019-02-22T10:03:09.396Z,2.20
2019-02-22T10:05:38.764Z,2.50
2019-02-22T10:08:08.049Z,2.53
2019-02-22T10:10:37.513Z,2.23
2019-02-22T10:13:06.808Z,2.90
2019-02-22T10:15:36.061Z,2.10
2019-02-22T10:18:05.416Z,2.20
2019-02-22T10:20:34.681Z,2.87
2019-02-22T10:23:03.968Z,2.60
2019-02-22T10:25:33.212Z,2.20
2019-02-22T10:28:02.484Z,2.37
2019-02-22T10:30:31.812Z,2.40
2019-02-22T10:33:01.060Z,1.70
2019-02-22T10:35:31.167Z,2.37
2019-02-22T10:38:00.435Z,2.00
2019-02-22T10:40:29.783Z,2.07
2019-02-22T10:42:59.139Z,2.07
2019-02-22T10:45:28.443Z,1.90
2019-02-22T10:47:57.719Z,2.20
2019-02-22T10:50:26.992Z,2.00
2019-02-22T10:53:02.133Z,1.87
2019-02-22T10:55:27.350Z,2.10
2019-02-22T10:57:56.735Z,2.20
2019-02-22T11:00:26.201Z,2.43
2019-02-22T11:02:55.448Z,2.03
2019-02-22T11:05:24.823Z,2.50
2019-02-22T11:07:55.062Z,1.87
2019-02-22T11:10:24.360Z,2.00
2019-02-22T11:12:53.643Z,2.27
2019-02-22T11:15:22.918Z,2.10
2019-02-22T11:17:52.115Z,2.53
2019-02-22T11:20:21.407Z,2.30
2019-02-22T11:22:50.643Z,2.67
2019-02-22T11:25:19.857Z,2.47
2019-02-22T11:27:49.082Z,3.60
2019-02-22T11:30:18.498Z,1.87
2019-02-22T11:32:48.075Z,2.03
2019-02-22T11:35:17.410Z,2.40
2019-02-22T11:37:46.700Z,2.20
2019-02-22T11:40:16.069Z,2.20
2019-02-22T11:42:45.410Z,2.40
2019-02-22T11:45:14.722Z,2.17
2019-02-22T11:47:44.094Z,2.00
2019-02-22T11:50:13.366Z,2.10
2019-02-22T11:52:42.643Z,2.17
2019-02-22T11:55:11.997Z,2.37
2019-02-22T11:57:41.398Z,2.37
2019-02-22T12:00:13.278Z,2.57
2019-02-22T12:02:45.159Z,2.57
2019-02-22T12:05:13.631Z,2.80
2019-02-22T12:07:42.993Z,3.00
2019-02-22T12:10:12.330Z,2.70
2019-02-22T12:12:41.873Z,2.53
2019-02-22T12:15:11.204Z,2.83
2019-02-22T12:17:40.501Z,4.17
2019-02-22T12:20:10.395Z,3.83
2019-02-22T12:22:39.654Z,3.13
2019-02-22T12:25:09.065Z,2.80
2019-02-22T12:27:38.307Z,2.70
2019-02-22T12:30:09.608Z,2.93
2019-02-22T12:32:39.668Z,2.70
2019-02-22T12:35:09.789Z,2.90
2019-02-22T12:37:39.060Z,2.90
2019-02-22T12:40:09.098Z,2.70
2019-02-22T12:42:39.254Z,3.57
2019-02-22T12:45:08.646Z,2.70
2019-02-22T12:47:38.305Z,3.10
2019-02-22T12:50:08.389Z,2.80
2019-02-22T12:52:37.716Z,2.83
2019-02-22T12:55:07.560Z,2.73
2019-02-22T12:57:36.809Z,2.37
2019-02-22T13:00:07.738Z,2.97
2019-02-22T13:02:37.009Z,2.77
2019-02-22T13:05:07.089Z,2.83
2019-02-22T13:07:36.380Z,2.70
2019-02-22T13:10:06.085Z,2.97
2019-02-22T13:12:35.455Z,3.53
2019-02-22T13:15:13.641Z,3.10
2019-02-22T13:17:35.645Z,2.70
2019-02-22T13:20:05.269Z,2.93
2019-02-22T13:22:34.557Z,2.70
2019-02-22T13:25:03.909Z,2.70
2019-02-22T13:27:33.224Z,3.00
2019-02-22T13:30:02.658Z,2.70
2019-02-22T13:32:32.061Z,3.10
2019-02-22T13:35:01.358Z,2.70
2019-02-22T13:37:30.673Z,2.57
2019-02-22T13:39:59.996Z,2.80
2019-02-22T13:42:29.320Z,2.73
2019-02-22T13:44:58.594Z,3.30
2019-02-22T13:47:27.844Z,2.57
2019-02-22T13:49:57.197Z,2.93
2019-02-22T13:52:26.472Z,2.70
2019-02-22T13:54:55.800Z,3.03
2019-02-22T13:57:25.108Z,3.83
2019-02-22T13:59:54.512Z,3.03
2019-02-22T14:02:23.757Z,2.93
2019-02-22T14:04:53.022Z,3.03
2019-02-22T14:07:22.300Z,3.03
2019-02-22T14:09:51.592Z,2.80
2019-02-22T14:12:20.852Z,2.67
2019-02-22T14:14:50.144Z,2.57
2019-02-22T14:17:19.446Z,2.90
2019-02-22T14:19:48.724Z,2.83
2019-02-22T14:22:18.025Z,2.93
2019-02-22T14:24:47.315Z,3.13
2019-02-22T14:27:16.591Z,3.37
2019-02-22T14:29:45.892Z,3.13
2019-02-22T14:32:15.159Z,3.97
2019-02-22T14:34:44.407Z,3.23
2019-02-22T14:37:13.789Z,3.33
2019-02-22T14:39:43.156Z,2.93
2019-02-22T14:42:12.414Z,3.17
2019-02-22T14:44:41.744Z,3.37
2019-02-22T14:47:11.116Z,3.57
2019-02-22T14:49:40.415Z,3.17
2019-02-22T14:52:09.743Z,2.67
2019-02-22T14:54:39.131Z,3.77
2019-02-22T14:57:08.499Z,2.87
2019-02-22T14:59:37.811Z,3.17
2019-02-22T15:02:07.080Z,3.60
2019-02-22T15:04:36.450Z,3.23
2019-02-22T15:07:05.842Z,2.57
2019-02-22T15:09:35.108Z,5.43
2019-02-22T15:12:04.400Z,3.20
2019-02-22T15:14:34.787Z,3.40
2019-02-22T15:17:12.113Z,3.40
2019-02-22T15:19:41.460Z,3.87
2019-02-22T15:22:10.744Z,3.60
2019-02-22T15:24:39.994Z,4.20
2019-02-22T15:27:09.294Z,3.97
2019-02-22T15:29:38.551Z,3.50
2019-02-22T15:32:07.925Z,4.60
2019-02-22T15:34:37.256Z,3.27
2019-02-22T15:37:06.547Z,3.73
2019-02-22T15:39:35.891Z,4.93
2019-02-22T15:42:05.170Z,4.00
2019-02-22T15:44:34.467Z,2.60
2019-02-22T15:47:11.666Z,3.70
2019-02-22T15:49:34.970Z,3.43
2019-02-22T15:52:04.584Z,3.47
2019-02-22T15:54:33.938Z,3.30
2019-02-22T15:57:03.336Z,3.80
2019-02-22T15:59:32.630Z,3.73
2019-02-22T16:02:01.883Z,3.70
2019-02-22T16:04:53.530Z,4.30
2019-02-22T16:07:22.862Z,4.07
2019-02-22T16:09:52.146Z,4.60
2019-02-22T16:12:21.462Z,4.97
2019-02-22T16:14:50.718Z,4.97
2019-02-22T16:17:20.010Z,4.43
2019-02-22T16:19:51.477Z,4.30
2019-02-22T16:22:20.182Z,3.53
2019-02-22T16:24:50.503Z,4.30
2019-02-22T16:27:19.766Z,3.90
2019-02-22T16:29:49.122Z,3.70
2019-02-22T16:32:18.458Z,4.70
2019-02-22T16:34:48.122Z,5.53
2019-02-22T16:37:17.443Z,7.80
2019-02-22T16:39:46.678Z,7.30
2019-02-22T16:42:16.074Z,8.67
2019-02-22T16:44:45.361Z,9.10
2019-02-22T16:47:14.790Z,9.70
2019-02-22T16:49:44.041Z,11.87
2019-02-22T16:52:13.349Z,11.23
2019-02-22T16:54:42.681Z,14.00
2019-02-22T16:57:12.048Z,11.57
2019-02-22T16:59:41.362Z,15.53
2019-02-22T17:02:10.633Z,9.30
2019-02-22T17:04:40.015Z,12.07
2019-02-22T17:07:09.341Z,8.43
2019-02-22T17:09:38.826Z,12.20
2019-02-22T17:12:08.069Z,7.93
2019-02-22T17:14:37.325Z,11.90
2019-02-22T17:17:06.597Z,12.07
2019-02-22T17:19:35.852Z,10.60
2019-02-22T17:22:05.161Z,13.43
2019-02-22T17:24:34.432Z,11.83
2019-02-22T17:27:03.730Z,24.00
2019-02-22T17:29:33.062Z,20.67
2019-02-22T17:32:02.365Z,21.00
2019-02-22T17:34:31.701Z,16.53
2019-02-22T17:37:01.081Z,14.30
2019-02-22T17:39:30.421Z,13.53
2019-02-22T17:41:59.957Z,11.37
2019-02-22T17:44:29.209Z,18.73
2019-02-22T17:46:58.632Z,15.20
2019-02-22T17:49:27.950Z,16.63
2019-02-22T17:51:57.309Z,13.47
2019-02-22T17:54:26.552Z,10.30
2019-02-22T17:56:55.928Z,12.57
2019-02-22T17:59:25.281Z,13.10
2019-02-22T18:01:54.640Z,12.00
2019-02-22T18:04:23.956Z,10.43
2019-02-22T18:06:53.308Z,10.93
2019-02-22T18:09:22.589Z,24.60
2019-02-22T18:11:51.884Z,23.67
2019-02-22T18:14:21.208Z,13.37
2019-02-22T18:16:50.492Z,21.90
2019-02-22T18:19:19.820Z,12.13
2019-02-22T18:21:49.256Z,14.73
2019-02-22T18:24:18.527Z,12.63
2019-02-22T18:26:47.901Z,15.53
2019-02-22T18:29:17.188Z,15.67
2019-02-22T18:31:46.469Z,15.13
2019-02-22T18:34:15.836Z,11.60
2019-02-22T18:36:45.239Z,19.90
2019-02-22T18:39:14.531Z,15.50
2019-02-22T18:41:43.877Z,14.03
2019-02-22T18:44:13.275Z,11.90
2019-02-22T18:46:42.700Z,30.77
2019-02-22T18:49:12.072Z,30.47
2019-02-22T18:51:41.383Z,43.43
2019-02-22T18:54:10.847Z,42.80
2019-02-22T18:56:40.105Z,32.07
2019-02-22T18:59:09.496Z,55.83
2019-02-22T19:01:38.815Z,67.80
2019-02-22T19:04:08.131Z,64.60
2019-02-22T19:06:37.459Z,48.80
2019-02-22T19:09:07.148Z,33.03
2019-02-22T19:11:36.447Z,18.83
2019-02-22T19:14:05.830Z,16.00
2019-02-22T19:16:35.131Z,24.77
2019-02-22T19:19:04.464Z,22.17
2019-02-22T19:21:33.771Z,17.73
2019-02-22T19:24:03.091Z,21.13
2019-02-22T19:26:32.451Z,19.10
2019-02-22T19:29:01.779Z,24.93
2019-02-22T19:31:31.051Z,24.90
2019-02-22T19:34:00.306Z,20.73
2019-02-22T19:36:29.595Z,23.10
2019-02-22T19:38:58.975Z,20.47
2019-02-22T19:41:28.239Z,17.83
2019-02-22T19:43:57.555Z,22.17
2019-02-22T19:46:28.787Z,19.83
2019-02-22T19:48:58.087Z,33.90
2019-02-22T19:51:27.447Z,28.67
2019-02-22T19:53:56.739Z,28.03
2019-02-22T19:56:25.999Z,64.90
2019-02-22T19:58:55.352Z,50.10
2019-02-22T20:01:24.709Z,54.07
2019-02-22T20:03:54.071Z,47.53
2019-02-22T20:06:23.399Z,49.07
2019-02-22T20:08:52.690Z,44.53
2019-02-22T20:11:21.988Z,49.67
2019-02-22T20:13:51.362Z,45.70
2019-02-22T20:16:20.707Z,41.27
2019-02-22T20:18:50.029Z,32.43
2019-02-22T20:21:19.325Z,34.43
2019-02-22T20:23:48.570Z,31.90
2019-02-22T20:26:17.899Z,28.80
2019-02-22T20:28:47.274Z,26.97
2019-02-22T20:31:20.355Z,22.43
2019-02-22T20:33:47.484Z,18.03
2019-02-22T20:36:18.155Z,10.53
2019-02-22T20:38:47.790Z,9.73
2019-02-22T20:41:16.972Z,9.73
2019-02-22T20:43:46.350Z,8.20
2019-02-22T20:46:15.606Z,8.33
2019-02-22T20:48:45.050Z,28.03
2019-02-22T20:51:14.320Z,26.40
2019-02-22T20:53:43.667Z,18.93
2019-02-22T20:56:13.142Z,34.50
2019-02-22T20:58:42.442Z,45.27
2019-02-22T21:01:14.743Z,22.67
2019-02-22T21:03:42.788Z,33.70
2019-02-22T21:06:12.126Z,29.30
2019-02-22T21:08:41.434Z,38.37
2019-02-22T21:11:10.694Z,30.87
2019-02-22T21:13:39.990Z,26.63
2019-02-22T21:16:09.210Z,23.77
2019-02-22T21:18:38.622Z,20.63
2019-02-22T21:21:07.872Z,24.27
2019-02-22T21:23:37.470Z,21.13
2019-02-22T21:26:06.766Z,21.20
2019-02-22T21:28:36.038Z,23.50
2019-02-22T21:31:05.414Z,42.20
2019-02-22T21:33:34.811Z,22.37
2019-02-22T21:36:04.133Z,15.60
2019-02-22T21:38:33.459Z,12.43
2019-02-22T21:41:02.797Z,12.67
2019-02-22T21:43:32.221Z,12.50
2019-02-22T21:46:01.517Z,16.73
2019-02-22T21:48:30.905Z,19.27
2019-02-22T21:51:00.265Z,24.10
2019-02-22T21:53:29.541Z,29.90
2019-02-22T21:55:58.829Z,34.70
2019-02-22T21:58:28.185Z,48.97
2019-02-22T22:00:57.502Z,51.83
2019-02-22T22:03:26.797Z,57.00
2019-02-22T22:05:56.140Z,63.20
2019-02-22T22:08:25.416Z,57.37
2019-02-22T22:10:54.708Z,49.23
2019-02-22T22:13:24.295Z,43.80
2019-02-22T22:15:53.664Z,38.30
2019-02-22T22:18:23.032Z,35.90
2019-02-22T22:20:52.693Z,34.97
2019-02-22T22:23:22.061Z,36.50
2019-02-22T22:25:51.526Z,43.17
2019-02-22T22:28:20.840Z,44.17
2019-02-22T22:30:50.180Z,43.47
2019-02-22T22:33:19.577Z,41.13
2019-02-22T22:35:48.880Z,40.97
2019-02-22T22:38:18.220Z,43.93
2019-02-22T22:40:47.527Z,48.90
2019-02-22T22:43:16.848Z,43.30
2019-02-22T22:45:46.520Z,38.80
2019-02-22T22:48:15.940Z,36.00
2019-02-22T22:50:45.232Z,42.33
2019-02-22T22:53:14.692Z,43.70
2019-02-22T22:55:44.080Z,49.40
2019-02-22T22:58:13.400Z,44.13
2019-02-22T23:01:23.844Z,46.60
2019-02-22T23:03:53.148Z,46.97
2019-02-22T23:06:22.480Z,40.13
2019-02-22T23:08:51.856Z,41.07
2019-02-22T23:11:21.536Z,70.43
2019-02-22T23:13:51.051Z,28.80
2019-02-22T23:16:20.424Z,26.97
2019-02-22T23:19:01.085Z,25.20
2019-02-22T23:21:24.068Z,24.83
2019-02-22T23:23:53.400Z,25.83
2019-02-22T23:26:23.055Z,22.50
2019-02-22T23:28:52.344Z,22.47
2019-02-22T23:31:21.787Z,23.60
2019-02-22T23:33:51.056Z,39.90
2019-02-22T23:36:20.386Z,33.73
2019-02-22T23:38:49.702Z,29.47
2019-02-22T23:41:18.966Z,26.47
2019-02-22T23:43:48.259Z,28.30
2019-02-22T23:46:17.519Z,25.47
2019-02-22T23:48:46.932Z,26.80
2019-02-22T23:51:16.272Z,24.13
2019-02-22T23:53:45.590Z,23.20
2019-02-22T23:56:14.948Z,22.87
2019-02-22T23:58:44.252Z,24.97
